createdAt,value
2022-12-12T00:04:14.959Z,-1.55
2022-12-12T00:09:09.507Z,-1.61
2022-12-12T00:14:03.024Z,-1.57
2022-12-12T00:18:57.820Z,-1.76
2022-12-12T00:23:51.857Z,-2.32
2022-12-12T00:33:52.476Z,-2.39
2022-12-12T00:49:01.073Z,-1.99
2022-12-12T00:53:54.794Z,-1.82
2022-12-12T00:58:48.764Z,-1.77
2022-12-12T01:03:43.877Z,-1.58
2022-12-12T01:39:16.773Z,-2.26
2022-12-12T01:54:44.773Z,-2.02
2022-12-12T02:04:45.433Z,-2.47
2022-12-12T02:25:44.117Z,-2.38
2022-12-12T02:30:49.774Z,-2.43
2022-12-12T02:41:15.368Z,-2.02
2022-12-12T02:51:17.156Z,-1.94
2022-12-12T03:07:08.337Z,-1.69
2022-12-12T03:17:29.782Z,-2.11
2022-12-12T03:27:38.913Z,-1.94
2022-12-12T03:32:44.008Z,-2.00
2022-12-12T03:37:45.760Z,-1.90
2022-12-12T03:42:48.246Z,-2.00
2022-12-12T03:47:50.516Z,-1.83
2022-12-12T03:52:52.250Z,-1.75
2022-12-12T03:57:56.076Z,-1.75
2022-12-12T04:02:57.283Z,-1.81
2022-12-12T04:08:02.577Z,-2.14
2022-12-12T04:13:20.980Z,-2.11
2022-12-12T04:18:24.971Z,-2.17
2022-12-12T04:23:33.255Z,-2.11
2022-12-12T04:28:31.950Z,-2.15
2022-12-12T04:33:36.976Z,-2.05
2022-12-12T04:38:31.169Z,-2.10
2022-12-12T04:43:34.219Z,-2.27
2022-12-12T04:48:38.308Z,-2.17
2022-12-12T04:53:41.322Z,-1.98
2022-12-12T04:58:37.738Z,-2.18
2022-12-12T05:03:44.811Z,-1.94
2022-12-12T05:08:45.335Z,-2.04
2022-12-12T05:13:43.029Z,-1.92
2022-12-12T05:18:36.286Z,-1.96
2022-12-12T05:23:34.446Z,-2.42
2022-12-12T05:28:28.160Z,-2.54
2022-12-12T05:33:22.852Z,-2.45
2022-12-12T05:38:16.246Z,-2.24
2022-12-12T05:43:09.644Z,-2.23
2022-12-12T05:48:02.983Z,-2.20
2022-12-12T05:52:57.638Z,-2.06
2022-12-12T05:57:50.877Z,-1.95
2022-12-12T06:02:44.373Z,-2.09
2022-12-12T06:07:37.735Z,-1.96
2022-12-12T06:12:32.472Z,-1.79
2022-12-12T06:17:32.742Z,-1.98
2022-12-12T06:22:26.516Z,-2.30
2022-12-12T06:27:19.840Z,-2.49
2022-12-12T06:32:14.667Z,-2.39
2022-12-12T06:37:10.731Z,-2.20
2022-12-12T06:42:08.972Z,-2.09
2022-12-12T06:47:02.272Z,-2.19
2022-12-12T06:52:00.067Z,-2.01
2022-12-12T06:56:53.420Z,-2.06
2022-12-12T07:01:47.273Z,-2.14
2022-12-12T07:06:40.785Z,-2.01
2022-12-12T07:11:35.729Z,-1.88
2022-12-12T07:16:29.077Z,-2.06
2022-12-12T07:21:23.376Z,-1.92
2022-12-12T07:26:19.535Z,-1.92
2022-12-12T07:31:17.757Z,-1.95
2022-12-12T07:36:12.083Z,-2.07
2022-12-12T07:41:07.665Z,-2.11
2022-12-12T07:46:01.047Z,-1.82
2022-12-12T07:50:56.075Z,-1.88
2022-12-12T07:55:50.972Z,-1.85
2022-12-12T08:00:46.955Z,-1.98
2022-12-12T08:05:42.068Z,-1.80
2022-12-12T08:10:39.830Z,-1.81
2022-12-12T08:15:33.331Z,-1.69
2022-12-12T08:20:26.752Z,-1.51
2022-12-12T08:25:20.237Z,-1.56
2022-12-12T08:30:15.946Z,-1.67
2022-12-12T08:35:10.686Z,-1.80
2022-12-12T08:40:08.353Z,-1.96
2022-12-12T08:45:01.710Z,-1.98
2022-12-12T08:49:56.491Z,-1.96
2022-12-12T08:54:51.832Z,-2.19
2022-12-12T08:59:45.220Z,-2.11
2022-12-12T09:04:38.600Z,-2.30
2022-12-12T09:09:33.933Z,-2.06
2022-12-12T09:14:27.476Z,-1.94
2022-12-12T09:19:20.985Z,-1.75
2022-12-12T09:24:14.449Z,-1.60
2022-12-12T09:29:09.505Z,-1.77
2022-12-12T09:34:02.787Z,-1.77
2022-12-12T09:38:56.139Z,-1.65
2022-12-12T09:43:57.057Z,-1.81
2022-12-12T09:48:52.050Z,-1.83
2022-12-12T09:53:48.562Z,-1.37
2022-12-12T09:58:56.871Z,-1.75
2022-12-12T10:04:07.891Z,-1.71
2022-12-12T10:09:22.276Z,-1.52
2022-12-12T10:14:18.854Z,-1.71
2022-12-12T10:19:23.264Z,-1.80
2022-12-12T10:24:33.468Z,-2.09
2022-12-12T10:29:28.577Z,-1.78
2022-12-12T10:34:47.406Z,-1.55
2022-12-12T10:40:03.854Z,-1.46
2022-12-12T10:45:19.736Z,-1.78
2022-12-12T10:50:29.886Z,-1.76
2022-12-12T10:55:36.759Z,-1.66
2022-12-12T11:00:34.598Z,-1.68
2022-12-12T11:05:51.812Z,-1.51
2022-12-12T11:10:46.052Z,-1.50
2022-12-12T11:15:45.674Z,-1.51
2022-12-12T11:20:50.984Z,-1.42
2022-12-12T11:25:44.689Z,-1.23
2022-12-12T11:30:45.310Z,-1.22
2022-12-12T11:35:47.425Z,-0.82
2022-12-12T11:40:41.968Z,-1.09
2022-12-12T11:45:38.944Z,-0.83
2022-12-12T11:50:32.359Z,-0.94
2022-12-12T11:55:40.271Z,-0.75
2022-12-12T12:00:45.148Z,-0.87
2022-12-12T12:05:55.979Z,-0.91
2022-12-12T12:11:06.601Z,-0.91
2022-12-12T12:16:13.402Z,-1.17
2022-12-12T12:21:42.769Z,-1.07
2022-12-12T12:26:50.913Z,-1.04
2022-12-12T12:32:02.156Z,-1.03
2022-12-12T12:37:12.643Z,-1.00
2022-12-12T12:42:25.095Z,-1.13
2022-12-12T12:47:34.307Z,-1.06
2022-12-12T12:52:37.324Z,-0.99
2022-12-12T12:57:39.215Z,-1.01
2022-12-12T13:02:49.337Z,-1.03
2022-12-12T13:07:53.335Z,-0.94
2022-12-12T13:12:57.301Z,-0.87
2022-12-12T13:18:01.394Z,-0.77
2022-12-12T13:23:18.570Z,-0.80
2022-12-12T13:28:18.899Z,-0.78
2022-12-12T13:33:36.944Z,-0.85
2022-12-12T13:38:35.842Z,-0.81
2022-12-12T13:43:44.848Z,-0.67
2022-12-12T13:48:55.429Z,-0.97
2022-12-12T13:53:48.806Z,-1.25
2022-12-12T13:58:43.770Z,-1.08
2022-12-12T14:03:39.455Z,-1.04
2022-12-12T14:08:37.914Z,-1.04
2022-12-12T14:13:45.573Z,-1.06
2022-12-12T14:18:42.767Z,-1.07
2022-12-12T14:23:42.094Z,-0.94
2022-12-12T14:28:36.049Z,-1.01
2022-12-12T14:34:22.458Z,-1.07
2022-12-12T14:39:38.162Z,-1.10
2022-12-12T14:44:38.969Z,-1.15
2022-12-12T14:49:34.058Z,-1.13
2022-12-12T14:54:28.292Z,-1.13
2022-12-12T14:59:35.331Z,-1.33
2022-12-12T15:04:38.521Z,-1.49
2022-12-12T15:09:33.492Z,-1.54
2022-12-12T15:14:33.239Z,-1.39
2022-12-12T15:19:32.492Z,-1.42
2022-12-12T15:24:36.794Z,-1.31
2022-12-12T15:29:33.665Z,-1.47
2022-12-12T15:34:33.449Z,-1.34
2022-12-12T15:39:28.168Z,-1.45
2022-12-12T15:44:23.181Z,-1.49
2022-12-12T15:49:40.708Z,-1.71
2022-12-12T15:54:35.454Z,-1.60
2022-12-12T15:59:34.640Z,-1.65
2022-12-12T16:04:28.086Z,-1.62
2022-12-12T16:09:25.211Z,-1.61
2022-12-12T16:14:54.321Z,-1.49
2022-12-12T16:19:57.514Z,-1.58
2022-12-12T16:24:54.216Z,-1.64
2022-12-12T16:29:53.224Z,-1.60
2022-12-12T16:34:54.956Z,-1.61
2022-12-12T16:40:16.192Z,-1.64
2022-12-12T16:45:25.890Z,-1.66
2022-12-12T16:50:21.785Z,-1.83
2022-12-12T16:55:36.394Z,-1.80
2022-12-12T17:00:37.440Z,-1.83
2022-12-12T17:05:30.915Z,-1.98
2022-12-12T17:10:31.757Z,-1.99
2022-12-12T17:15:28.722Z,-1.96
2022-12-12T17:20:24.462Z,-1.85
2022-12-12T17:25:18.219Z,-1.77
2022-12-12T17:30:14.593Z,-1.85
2022-12-12T17:35:10.003Z,-1.63
2022-12-12T17:46:31.052Z,-2.16
2022-12-12T17:51:25.166Z,-2.66
2022-12-12T17:56:21.151Z,-2.56
2022-12-12T18:01:20.103Z,-2.58
2022-12-12T18:06:15.487Z,-2.47
2022-12-12T18:11:10.229Z,-2.40
2022-12-12T18:16:04.345Z,-2.38
2022-12-12T18:21:05.711Z,-2.50
2022-12-12T18:26:04.971Z,-2.86
2022-12-12T18:30:58.580Z,-2.81
2022-12-12T18:35:52.118Z,-2.77
2022-12-12T18:40:47.028Z,-2.87
2022-12-12T18:45:40.352Z,-2.98
2022-12-12T18:50:36.229Z,-3.22
2022-12-12T18:55:30.487Z,-2.90
2022-12-12T19:00:25.810Z,-2.63
2022-12-12T19:05:19.486Z,-2.33
2022-12-12T19:10:13.226Z,-2.44
2022-12-12T19:15:18.015Z,-2.91
2022-12-12T19:20:14.099Z,-2.97
2022-12-12T19:25:09.742Z,-3.24
2022-12-12T19:30:03.177Z,-3.26
2022-12-12T19:35:08.073Z,-3.12
2022-12-12T19:40:03.302Z,-2.88
2022-12-12T19:44:56.737Z,-3.29
2022-12-12T19:49:51.123Z,-3.21
2022-12-12T19:54:44.901Z,-3.21
2022-12-12T19:59:41.117Z,-3.29
2022-12-12T20:04:34.766Z,-3.46
2022-12-12T20:09:30.559Z,-3.45
2022-12-12T20:14:26.665Z,-3.37
2022-12-12T20:19:29.011Z,-3.41
2022-12-12T20:24:25.772Z,-3.36
2022-12-12T20:29:21.845Z,-3.33
2022-12-12T20:34:21.829Z,-3.38
2022-12-12T20:39:22.421Z,-3.37
2022-12-12T20:44:16.815Z,-3.12
2022-12-12T20:49:24.172Z,-3.11
2022-12-12T20:54:21.692Z,-3.32
2022-12-12T20:59:15.608Z,-3.44
2022-12-12T21:04:12.335Z,-3.39
2022-12-12T21:09:17.749Z,-3.52
2022-12-12T21:14:17.675Z,-3.63
2022-12-12T21:19:15.038Z,-3.50
2022-12-12T21:24:09.529Z,-3.58
2022-12-12T21:29:04.940Z,-3.36
2022-12-12T21:34:04.349Z,-3.46
2022-12-12T21:39:00.017Z,-3.44
2022-12-12T21:43:54.035Z,-3.42
2022-12-12T21:49:08.248Z,-3.32
2022-12-12T21:54:03.944Z,-3.49
2022-12-12T21:58:59.383Z,-3.71
2022-12-12T22:03:52.787Z,-3.48
2022-12-12T22:08:47.202Z,-3.76
2022-12-12T22:13:43.561Z,-3.48
2022-12-12T22:18:37.129Z,-3.61
2022-12-12T22:23:30.397Z,-3.51
2022-12-12T22:28:23.771Z,-3.63
2022-12-12T22:33:18.446Z,-3.71
2022-12-12T22:38:11.696Z,-3.48
2022-12-12T22:43:05.143Z,-3.61
2022-12-12T22:47:58.444Z,-3.45
2022-12-12T22:52:53.158Z,-3.70
2022-12-12T22:57:48.303Z,-3.67
2022-12-12T23:02:41.638Z,-3.76
2022-12-12T23:07:34.961Z,-3.49
2022-12-12T23:12:30.473Z,-3.35
2022-12-12T23:17:23.915Z,-3.48
2022-12-12T23:22:18.441Z,-3.57
2022-12-12T23:27:11.870Z,-3.86
2022-12-12T23:32:06.631Z,-3.78
2022-12-12T23:36:59.943Z,-3.65
2022-12-12T23:41:53.846Z,-3.64
2022-12-12T23:46:47.369Z,-3.71
2022-12-12T23:51:45.727Z,-3.57
2022-12-12T23:56:40.326Z,-3.41
